createdAt,value
2023-05-09T00:00:44.703Z,100909.19
2023-05-09T00:03:11.378Z,100911.81
2023-05-09T00:05:38.611Z,100908.19
2023-05-09T00:08:05.341Z,100909.16
2023-05-09T00:10:32.022Z,100913.50
2023-05-09T00:12:58.801Z,100903.84
2023-05-09T00:15:25.580Z,100908.22
2023-05-09T00:17:53.560Z,100900.47
2023-05-09T00:20:20.417Z,100904.81
2023-05-09T00:22:50.115Z,100900.47
2023-05-09T00:25:16.889Z,100901.31
2023-05-09T00:27:43.927Z,100897.00
2023-05-09T00:30:10.875Z,100899.59
2023-05-09T00:32:37.544Z,100891.75
2023-05-09T00:35:04.698Z,100889.94
2023-05-09T00:37:31.358Z,100898.69
2023-05-09T00:39:58.073Z,100887.38
2023-05-09T00:42:24.737Z,100891.75
2023-05-09T00:44:51.428Z,100888.28
2023-05-09T00:47:18.192Z,100890.00
2023-05-09T00:49:45.047Z,100896.97
2023-05-09T00:52:11.764Z,100888.28
2023-05-09T00:54:38.655Z,100889.13
2023-05-09T00:57:05.405Z,100895.28
2023-05-09T00:59:33.666Z,100889.19
2023-05-09T01:02:00.426Z,100886.56
2023-05-09T01:04:27.275Z,100890.06
2023-05-09T01:07:02.866Z,100885.69
2023-05-09T01:10:00.951Z,100888.31
2023-05-09T01:13:01.544Z,100885.69
2023-05-09T01:15:47.101Z,100890.91
2023-05-09T01:18:19.733Z,100888.28
2023-05-09T01:20:53.985Z,100878.66
2023-05-09T01:23:44.376Z,100889.16
2023-05-09T01:26:56.008Z,100885.69
2023-05-09T01:29:58.284Z,100877.84
2023-05-09T01:32:27.719Z,100882.19
2023-05-09T01:35:00.791Z,100885.69
2023-05-09T01:37:36.423Z,100883.94
2023-05-09T01:40:20.683Z,100879.56
2023-05-09T01:42:57.115Z,100867.34
2023-05-09T01:45:25.416Z,100868.22
2023-05-09T01:47:54.123Z,100863.00
2023-05-09T01:50:22.582Z,100874.31
2023-05-09T01:52:52.661Z,100876.03
2023-05-09T01:55:21.682Z,100872.56
2023-05-09T01:57:49.861Z,100860.41
2023-05-09T02:00:17.360Z,100863.00
2023-05-09T02:02:44.777Z,100864.75
2023-05-09T02:05:12.441Z,100870.00
2023-05-09T02:07:41.875Z,100860.41
2023-05-09T02:10:10.049Z,100865.63
2023-05-09T02:12:36.779Z,100860.38
2023-05-09T02:15:04.102Z,100856.91
2023-05-09T02:17:30.875Z,100854.28
2023-05-09T02:19:57.908Z,100856.00
2023-05-09T02:22:24.731Z,100851.63
2023-05-09T02:24:51.628Z,100848.19
2023-05-09T02:27:20.431Z,100849.91
2023-05-09T02:29:51.839Z,100861.25
2023-05-09T02:32:27.101Z,100849.91
2023-05-09T02:34:54.488Z,100850.78
2023-05-09T02:37:23.499Z,100853.44
2023-05-09T02:39:50.143Z,100840.34
2023-05-09T02:42:22.103Z,100840.34
2023-05-09T02:44:48.765Z,100844.69
2023-05-09T02:47:15.487Z,100841.16
2023-05-09T02:49:42.081Z,100842.06
2023-05-09T02:52:09.025Z,100844.66
2023-05-09T02:54:35.666Z,100837.63
2023-05-09T02:57:02.404Z,100840.31
2023-05-09T02:59:29.138Z,100847.28
2023-05-09T03:01:56.076Z,100841.19
2023-05-09T03:04:22.758Z,100844.63
2023-05-09T03:06:49.386Z,100839.44
2023-05-09T03:09:16.006Z,100839.44
2023-05-09T03:11:42.688Z,100841.97
2023-05-09T03:14:09.309Z,100836.75
2023-05-09T03:16:35.933Z,100840.22
2023-05-09T03:19:03.411Z,100838.50
2023-05-09T03:21:30.311Z,100841.00
2023-05-09T03:23:56.899Z,100836.63
2023-05-09T03:26:23.540Z,100834.94
2023-05-09T03:28:50.116Z,100836.63
2023-05-09T03:31:16.876Z,100838.47
2023-05-09T03:33:43.560Z,100840.28
2023-05-09T03:36:10.197Z,100837.63
2023-05-09T03:38:36.932Z,100841.13
2023-05-09T03:41:03.967Z,100845.38
2023-05-09T03:43:30.664Z,100850.69
2023-05-09T03:45:57.319Z,100850.78
2023-05-09T03:48:23.951Z,100852.50
2023-05-09T03:50:50.632Z,100850.78
2023-05-09T03:53:17.239Z,100846.38
2023-05-09T03:55:43.833Z,100858.53
2023-05-09T03:58:11.780Z,100853.31
2023-05-09T04:00:38.754Z,100850.69
2023-05-09T04:03:07.794Z,100854.09
2023-05-09T04:05:34.904Z,100846.25
2023-05-09T04:08:01.646Z,100849.69
2023-05-09T04:10:28.386Z,100854.03
2023-05-09T04:12:55.036Z,100854.06
2023-05-09T04:15:21.647Z,100848.06
2023-05-09T04:17:48.292Z,100849.81
2023-05-09T04:20:14.987Z,100849.84
2023-05-09T04:22:41.668Z,100858.47
2023-05-09T04:25:08.444Z,100859.38
2023-05-09T04:27:35.126Z,100858.53
2023-05-09T04:30:01.757Z,100854.19
2023-05-09T04:32:28.380Z,100850.72
2023-05-09T04:34:55.124Z,100848.06
2023-05-09T04:37:21.740Z,100851.59
2023-05-09T04:39:48.385Z,100855.06
2023-05-09T04:42:14.977Z,100855.09
2023-05-09T04:44:41.791Z,100860.31
2023-05-09T04:47:09.502Z,100867.34
2023-05-09T04:49:36.140Z,100853.38
2023-05-09T04:52:02.806Z,100855.16
2023-05-09T04:54:29.400Z,100856.03
2023-05-09T04:57:03.231Z,100861.28
2023-05-09T04:59:36.808Z,100856.91
2023-05-09T05:02:03.488Z,100856.91
2023-05-09T05:04:30.137Z,100852.56
2023-05-09T05:06:56.819Z,100857.78
2023-05-09T05:09:23.492Z,100850.81
2023-05-09T05:11:59.588Z,100856.03
2023-05-09T05:14:27.708Z,100860.38
2023-05-09T05:16:54.814Z,100870.00
2023-05-09T05:19:21.460Z,100862.09
2023-05-09T05:21:48.100Z,100862.09
2023-05-09T05:24:14.730Z,100865.56
2023-05-09T05:26:41.352Z,100870.75
2023-05-09T05:29:08.007Z,100863.66
2023-05-09T05:31:34.720Z,100856.59
2023-05-09T05:34:01.489Z,100859.22
2023-05-09T05:36:28.087Z,100860.91
2023-05-09T05:38:54.705Z,100868.66
2023-05-09T05:41:21.294Z,100865.94
2023-05-09T05:43:47.902Z,100858.91
2023-05-09T05:46:14.537Z,100857.88
2023-05-09T05:48:41.202Z,100857.59
2023-05-09T05:51:08.045Z,100858.28
2023-05-09T05:53:34.749Z,100855.00
2023-05-09T05:56:01.367Z,100855.72
2023-05-09T05:58:27.975Z,100863.56
2023-05-09T06:00:54.864Z,100856.53
2023-05-09T06:03:21.488Z,100866.94
2023-05-09T06:05:48.252Z,100858.91
2023-05-09T06:08:14.909Z,100862.09
2023-05-09T06:10:41.744Z,100864.88
2023-05-09T06:13:08.546Z,100857.59
2023-05-09T06:15:35.175Z,100865.44
2023-05-09T06:18:01.800Z,100863.69
2023-05-09T06:20:31.384Z,100862.81
2023-05-09T06:22:57.970Z,100868.06
2023-05-09T06:25:24.589Z,100858.28
2023-05-09T06:27:51.207Z,100863.03
2023-05-09T06:30:28.057Z,100863.56
2023-05-09T06:32:55.518Z,100858.00
2023-05-09T06:35:22.366Z,100853.53
2023-05-09T06:37:49.542Z,100852.59
2023-05-09T06:40:17.026Z,100853.53
2023-05-09T06:42:44.275Z,100849.88
2023-05-09T06:45:11.795Z,100853.22
2023-05-09T06:47:38.800Z,100867.03
2023-05-09T06:50:06.073Z,100856.59
2023-05-09T06:52:32.739Z,100854.22
2023-05-09T06:54:59.317Z,100845.13
2023-05-09T06:57:26.262Z,100855.25
2023-05-09T06:59:52.930Z,100852.72
2023-05-09T07:02:19.685Z,100841.47
2023-05-09T07:04:46.471Z,100840.97
2023-05-09T07:07:13.295Z,100844.78
2023-05-09T07:09:39.942Z,100835.28
2023-05-09T07:12:06.742Z,100831.53
2023-05-09T07:14:33.424Z,100827.06
2023-05-09T07:17:13.799Z,100835.19
2023-05-09T07:19:45.311Z,100820.50
2023-05-09T07:22:11.990Z,100831.59
2023-05-09T07:24:38.799Z,100826.34
2023-05-09T07:27:05.667Z,100826.66
2023-05-09T07:29:32.278Z,100816.75
2023-05-09T07:31:58.924Z,100807.78
2023-05-09T07:34:25.649Z,100810.63
2023-05-09T07:36:52.572Z,100813.44
2023-05-09T07:39:19.203Z,100807.13
2023-05-09T07:41:47.880Z,100805.09
2023-05-09T07:44:15.458Z,100807.13
2023-05-09T07:46:42.142Z,100807.03
2023-05-09T07:49:08.976Z,100806.31
2023-05-09T07:51:36.029Z,100806.97
2023-05-09T07:54:02.702Z,100795.22
2023-05-09T07:56:29.280Z,100797.97
2023-05-09T07:58:56.019Z,100790.94
2023-05-09T08:01:22.652Z,100783.13
2023-05-09T08:03:49.488Z,100778.59
2023-05-09T08:06:16.301Z,100788.16
2023-05-09T08:08:42.910Z,100779.72
2023-05-09T08:11:09.735Z,100779.72
2023-05-09T08:13:36.399Z,100773.97
2023-05-09T08:16:03.110Z,100773.00
2023-05-09T08:18:32.803Z,100778.81
2023-05-09T08:20:59.458Z,100765.09
2023-05-09T08:23:28.291Z,100769.50
2023-05-09T08:25:55.234Z,100765.81
2023-05-09T08:28:22.573Z,100757.97
2023-05-09T08:30:49.173Z,100766.16
2023-05-09T08:33:15.827Z,100753.31
2023-05-09T08:35:42.461Z,100762.72
2023-05-09T08:38:09.296Z,100758.31
2023-05-09T08:40:36.961Z,100761.06
2023-05-09T08:43:06.746Z,100752.66
2023-05-09T08:45:36.151Z,100759.41
2023-05-09T08:48:03.552Z,100763.63
2023-05-09T08:50:30.305Z,100752.69
2023-05-09T08:52:57.216Z,100756.03
2023-05-09T08:55:23.920Z,100748.06
2023-05-09T08:57:52.244Z,100758.22
2023-05-09T09:00:20.824Z,100749.84
2023-05-09T09:02:48.402Z,100746.19
2023-05-09T09:05:34.064Z,100742.50
2023-05-09T09:08:01.965Z,100738.78
2023-05-09T09:10:32.691Z,100733.66
2023-05-09T09:13:00.783Z,100743.00
2023-05-09T09:15:35.207Z,100726.72
2023-05-09T09:18:09.691Z,100743.72
2023-05-09T09:20:48.970Z,100733.09
2023-05-09T09:23:21.113Z,100727.69
2023-05-09T09:25:48.133Z,100732.19
2023-05-09T09:28:15.320Z,100739.63
2023-05-09T09:30:49.301Z,100744.81
2023-05-09T09:33:20.522Z,100734.31
2023-05-09T09:35:55.613Z,100733.09
2023-05-09T09:38:24.354Z,100736.59
2023-05-09T09:40:55.680Z,100735.88
2023-05-09T09:43:32.082Z,100733.69
2023-05-09T09:46:03.146Z,100732.69
2023-05-09T09:48:34.774Z,100733.72
2023-05-09T09:51:09.233Z,100728.78
2023-05-09T09:53:40.684Z,100725.59
2023-05-09T09:56:08.300Z,100725.31
2023-05-09T09:58:35.532Z,100719.53
2023-05-09T10:01:10.305Z,100723.13
2023-05-09T10:03:42.360Z,100728.91
2023-05-09T10:06:14.371Z,100721.84
2023-05-09T10:08:42.478Z,100714.13
2023-05-09T10:11:09.762Z,100708.13
2023-05-09T10:13:37.575Z,100695.34
2023-05-09T10:16:05.899Z,100699.78
2023-05-09T10:18:33.384Z,100699.41
2023-05-09T10:21:00.151Z,100706.69
2023-05-09T10:23:29.923Z,100694.38
2023-05-09T10:26:23.388Z,100699.41
2023-05-09T10:28:55.307Z,100694.19
2023-05-09T10:31:25.091Z,100694.31
2023-05-09T10:33:51.810Z,100699.97
2023-05-09T10:36:20.609Z,100708.47
2023-05-09T10:38:48.378Z,100696.53
2023-05-09T10:41:16.410Z,100694.03
2023-05-09T10:43:44.793Z,100695.47
2023-05-09T10:46:12.775Z,100700.97
2023-05-09T10:48:40.574Z,100694.56
2023-05-09T10:51:08.264Z,100685.69
2023-05-09T10:53:43.076Z,100689.44
2023-05-09T10:56:10.325Z,100689.22
2023-05-09T10:58:36.980Z,100692.09
2023-05-09T11:01:05.020Z,100697.38
2023-05-09T11:03:58.739Z,100690.03
2023-05-09T11:06:43.424Z,100683.94
2023-05-09T11:09:38.243Z,100691.22
2023-05-09T11:12:05.029Z,100681.66
2023-05-09T11:14:36.101Z,100675.81
2023-05-09T11:17:07.085Z,100676.78
2023-05-09T11:19:45.633Z,100675.81
2023-05-09T11:22:23.298Z,100667.13
2023-05-09T11:24:52.277Z,100673.94
2023-05-09T11:27:24.146Z,100668.00
2023-05-09T11:29:53.237Z,100666.72
2023-05-09T11:32:28.716Z,100662.44
2023-05-09T11:35:12.952Z,100671.91
2023-05-09T11:37:45.861Z,100658.25
2023-05-09T11:40:14.302Z,100663.72
2023-05-09T11:42:48.438Z,100657.41
2023-05-09T11:45:16.161Z,100664.16
2023-05-09T11:47:43.090Z,100661.34
2023-05-09T11:50:11.764Z,100659.22
2023-05-09T11:52:38.973Z,100651.44
2023-05-09T11:55:12.794Z,100658.88
2023-05-09T11:57:41.904Z,100649.72
2023-05-09T12:00:09.194Z,100648.91
2023-05-09T12:02:37.298Z,100642.88
2023-05-09T12:05:10.954Z,100640.69
2023-05-09T12:07:38.354Z,100636.34
2023-05-09T12:10:25.270Z,100639.66
2023-05-09T12:12:53.514Z,100637.88
2023-05-09T12:15:20.466Z,100626.72
2023-05-09T12:17:50.493Z,100630.19
2023-05-09T12:20:18.613Z,100621.91
2023-05-09T12:22:45.484Z,100618.97
2023-05-09T12:25:12.482Z,100618.47
2023-05-09T12:27:42.256Z,100620.88
2023-05-09T12:30:09.405Z,100618.19
2023-05-09T12:32:36.986Z,100615.69
2023-05-09T12:35:03.791Z,100608.78
2023-05-09T12:37:31.503Z,100622.78
2023-05-09T12:40:09.288Z,100612.25
2023-05-09T12:42:36.206Z,100618.22
2023-05-09T12:45:03.641Z,100611.41
2023-05-09T12:47:31.335Z,100610.97
2023-05-09T12:50:02.582Z,100594.00
2023-05-09T12:52:44.005Z,100599.41
2023-05-09T12:55:18.769Z,100595.25
2023-05-09T12:57:58.463Z,100591.25
2023-05-09T13:00:25.575Z,100589.41
2023-05-09T13:02:52.445Z,100588.00
2023-05-09T13:05:21.072Z,100582.50
2023-05-09T13:07:52.312Z,100587.31
2023-05-09T13:10:29.939Z,100569.41
2023-05-09T13:12:56.652Z,100567.00
2023-05-09T13:15:23.462Z,100562.53
2023-05-09T13:17:51.728Z,100560.44
2023-05-09T13:20:19.536Z,100558.00
2023-05-09T13:22:46.899Z,100557.97
2023-05-09T13:25:13.835Z,100543.56
2023-05-09T13:27:40.552Z,100545.09
2023-05-09T13:30:07.785Z,100543.19
2023-05-09T13:32:34.988Z,100550.44
2023-05-09T13:35:01.651Z,100558.34
2023-05-09T13:37:28.615Z,100555.69
2023-05-09T13:39:55.804Z,100550.41
2023-05-09T13:42:22.507Z,100549.88
2023-05-09T13:44:49.121Z,100562.41
2023-05-09T13:47:15.753Z,100548.25
2023-05-09T13:49:42.350Z,100543.88
2023-05-09T13:52:08.948Z,100540.53
2023-05-09T13:54:35.640Z,100535.34
2023-05-09T13:57:03.466Z,100520.91
2023-05-09T13:59:31.066Z,100513.41
2023-05-09T14:02:01.039Z,100509.28
2023-05-09T14:04:29.173Z,100519.91
2023-05-09T14:06:56.049Z,100511.44
2023-05-09T14:09:23.166Z,100512.72
2023-05-09T14:11:50.723Z,100519.84
2023-05-09T14:14:21.379Z,100511.34
2023-05-09T14:16:50.321Z,100510.00
2023-05-09T14:19:17.540Z,100513.53
2023-05-09T14:21:47.321Z,100513.84
2023-05-09T14:24:16.166Z,100513.25
2023-05-09T14:26:43.306Z,100512.28
2023-05-09T14:29:09.976Z,100514.84
2023-05-09T14:31:36.712Z,100500.09
2023-05-09T14:34:03.353Z,100500.94
2023-05-09T14:36:30.448Z,100507.50
2023-05-09T14:38:57.174Z,100492.13
2023-05-09T14:41:23.892Z,100494.44
2023-05-09T14:43:51.371Z,100500.69
2023-05-09T14:46:18.210Z,100495.13
2023-05-09T14:48:44.874Z,100490.72
2023-05-09T14:51:11.520Z,100489.38
2023-05-09T14:53:38.112Z,100497.13
2023-05-09T14:56:05.756Z,100485.31
2023-05-09T14:58:32.505Z,100482.94
2023-05-09T15:00:59.378Z,100484.13
2023-05-09T15:03:26.063Z,100482.53
2023-05-09T15:05:52.681Z,100484.09
2023-05-09T15:08:19.458Z,100483.03
2023-05-09T15:10:46.697Z,100480.16
2023-05-09T15:13:13.642Z,100483.81
2023-05-09T15:15:40.342Z,100476.44
2023-05-09T15:18:07.652Z,100476.25
2023-05-09T15:20:34.355Z,100467.91
2023-05-09T15:23:01.040Z,100469.72
2023-05-09T15:25:27.738Z,100464.25
2023-05-09T15:27:54.399Z,100465.94
2023-05-09T15:30:21.044Z,100459.41
2023-05-09T15:32:47.638Z,100459.34
2023-05-09T15:35:14.332Z,100448.28
2023-05-09T15:37:40.979Z,100443.50
2023-05-09T15:40:08.306Z,100445.13
2023-05-09T15:42:35.342Z,100447.69
2023-05-09T15:45:02.273Z,100451.72
2023-05-09T15:47:29.139Z,100456.94
2023-05-09T15:49:57.840Z,100455.41
2023-05-09T15:52:27.494Z,100447.31
2023-05-09T15:54:55.811Z,100452.41
2023-05-09T15:57:22.782Z,100445.75
2023-05-09T15:59:49.419Z,100439.56
2023-05-09T16:02:16.442Z,100442.97
2023-05-09T16:04:45.444Z,100438.09
2023-05-09T16:07:12.499Z,100438.28
2023-05-09T16:09:39.207Z,100425.19
2023-05-09T16:12:05.951Z,100427.09
2023-05-09T16:14:32.784Z,100426.13
2023-05-09T16:16:59.776Z,100429.53
2023-05-09T16:19:33.182Z,100427.19
2023-05-09T16:22:01.760Z,100422.47
2023-05-09T16:24:28.446Z,100427.63
2023-05-09T16:26:57.343Z,100427.81
2023-05-09T16:29:24.028Z,100431.84
2023-05-09T16:31:50.666Z,100435.38
2023-05-09T16:34:17.338Z,100425.47
2023-05-09T16:36:44.067Z,100412.94
2023-05-09T16:39:10.742Z,100416.81
2023-05-09T16:41:37.458Z,100410.28
2023-05-09T16:44:04.321Z,100404.16
2023-05-09T16:46:31.028Z,100403.91
2023-05-09T16:48:57.705Z,100407.00
2023-05-09T16:51:24.378Z,100408.00
2023-05-09T16:53:51.064Z,100404.84
2023-05-09T16:56:17.719Z,100405.22
2023-05-09T16:58:44.300Z,100402.88
2023-05-09T17:01:10.985Z,100406.91
2023-05-09T17:03:37.662Z,100404.44
2023-05-09T17:06:04.377Z,100403.47
2023-05-09T17:08:30.972Z,100397.69
2023-05-09T17:10:57.706Z,100404.22
2023-05-09T17:13:24.454Z,100401.53
2023-05-09T17:15:51.194Z,100404.66
2023-05-09T17:18:29.109Z,100402.63
2023-05-09T17:21:03.500Z,100402.41
2023-05-09T17:23:30.176Z,100397.78
2023-05-09T17:25:56.813Z,100402.16
2023-05-09T17:28:23.437Z,100400.88
2023-05-09T17:30:50.755Z,100404.84
2023-05-09T17:33:17.365Z,100401.22
2023-05-09T17:35:44.019Z,100397.84
2023-05-09T17:38:10.656Z,100398.84
2023-05-09T17:40:37.371Z,100399.50
2023-05-09T17:43:04.028Z,100390.84
2023-05-09T17:45:30.687Z,100398.75
2023-05-09T17:47:57.386Z,100393.22
2023-05-09T17:50:24.082Z,100397.09
2023-05-09T17:52:50.727Z,100394.16
2023-05-09T17:55:17.470Z,100394.63
2023-05-09T17:57:44.446Z,100398.47
2023-05-09T18:00:13.342Z,100395.31
2023-05-09T18:02:41.158Z,100402.16
2023-05-09T18:05:08.854Z,100397.47
2023-05-09T18:07:35.712Z,100396.25
2023-05-09T18:10:05.244Z,100405.81
2023-05-09T18:12:31.904Z,100401.63
2023-05-09T18:14:58.531Z,100402.59
2023-05-09T18:17:25.233Z,100404.00
2023-05-09T18:19:52.020Z,100406.38
2023-05-09T18:22:18.634Z,100402.16
2023-05-09T18:24:45.600Z,100402.16
2023-05-09T18:27:12.227Z,100405.84
2023-05-09T18:29:38.867Z,100410.38
2023-05-09T18:32:08.432Z,100406.56
2023-05-09T18:34:35.126Z,100414.22
2023-05-09T18:37:01.767Z,100419.72
2023-05-09T18:39:28.564Z,100416.47
2023-05-09T18:41:57.593Z,100417.06
2023-05-09T18:44:25.365Z,100419.34
2023-05-09T18:46:52.084Z,100424.97
2023-05-09T18:49:18.847Z,100426.28
2023-05-09T18:51:46.766Z,100431.38
2023-05-09T18:54:13.513Z,100432.66
2023-05-09T18:56:40.209Z,100430.50
2023-05-09T18:59:06.894Z,100431.25
2023-05-09T19:01:33.643Z,100434.28
2023-05-09T19:04:00.408Z,100431.53
2023-05-09T19:06:27.160Z,100430.75
2023-05-09T19:08:56.593Z,100430.88
2023-05-09T19:11:23.260Z,100433.56
2023-05-09T19:13:50.035Z,100436.53
2023-05-09T19:16:16.943Z,100430.84
2023-05-09T19:18:43.626Z,100433.94
2023-05-09T19:21:11.303Z,100429.56
2023-05-09T19:23:37.935Z,100426.22
2023-05-09T19:26:04.578Z,100431.22
2023-05-09T19:28:31.270Z,100430.22
2023-05-09T19:30:57.949Z,100429.28
2023-05-09T19:33:24.610Z,100428.22
2023-05-09T19:35:51.226Z,100422.72
2023-05-09T19:38:17.867Z,100418.81
2023-05-09T19:40:44.491Z,100432.53
2023-05-09T19:43:11.202Z,100425.56
2023-05-09T19:45:37.889Z,100417.66
2023-05-09T19:48:04.730Z,100424.03
2023-05-09T19:50:31.443Z,100421.97
2023-05-09T19:52:58.380Z,100412.03
2023-05-09T19:55:27.697Z,100421.22
2023-05-09T19:57:54.371Z,100420.53
2023-05-09T20:00:21.059Z,100419.56
2023-05-09T20:02:47.756Z,100417.13
2023-05-09T20:05:14.450Z,100415.34
2023-05-09T20:07:41.314Z,100414.06
2023-05-09T20:10:08.388Z,100409.19
2023-05-09T20:12:34.995Z,100405.75
2023-05-09T20:15:01.577Z,100415.06
2023-05-09T20:17:28.253Z,100420.34
2023-05-09T20:19:54.845Z,100418.06
2023-05-09T20:22:21.560Z,100414.44
2023-05-09T20:24:48.305Z,100416.69
2023-05-09T20:27:15.030Z,100421.59
2023-05-09T20:29:41.703Z,100409.00
2023-05-09T20:32:08.356Z,100416.16
2023-05-09T20:34:34.986Z,100404.88
2023-05-09T20:37:01.660Z,100408.97
2023-05-09T20:39:28.338Z,100398.81
2023-05-09T20:41:55.064Z,100407.72
2023-05-09T20:44:21.713Z,100396.81
2023-05-09T20:46:48.333Z,100405.13
2023-05-09T20:49:15.050Z,100401.44
2023-05-09T20:51:41.836Z,100397.06
2023-05-09T20:54:08.489Z,100396.78
2023-05-09T20:56:35.171Z,100391.41
2023-05-09T20:59:02.383Z,100388.53
2023-05-09T21:01:30.405Z,100391.16
2023-05-09T21:03:57.146Z,100394.66
2023-05-09T21:06:23.802Z,100389.09
2023-05-09T21:08:50.549Z,100391.81
2023-05-09T21:11:19.300Z,100390.75
2023-05-09T21:13:45.948Z,100389.19
2023-05-09T21:16:12.571Z,100381.06
2023-05-09T21:18:39.257Z,100379.78
2023-05-09T21:21:07.072Z,100382.56
2023-05-09T21:23:34.198Z,100375.84
2023-05-09T21:26:01.224Z,100375.19
2023-05-09T21:28:28.144Z,100384.31
2023-05-09T21:30:55.055Z,100385.59
2023-05-09T21:33:21.944Z,100391.56
2023-05-09T21:35:48.641Z,100385.03
2023-05-09T21:38:15.389Z,100382.31
2023-05-09T21:40:42.026Z,100377.47
2023-05-09T21:43:08.634Z,100374.66
2023-05-09T21:45:35.297Z,100370.53
2023-05-09T21:48:02.127Z,100372.28
2023-05-09T21:50:28.871Z,100369.44
2023-05-09T21:52:55.492Z,100369.50
2023-05-09T21:55:22.492Z,100375.25
2023-05-09T21:57:49.349Z,100371.13
2023-05-09T22:00:17.027Z,100365.09
2023-05-09T22:02:44.075Z,100371.41
2023-05-09T22:05:11.547Z,100371.47
2023-05-09T22:07:38.393Z,100371.84
2023-05-09T22:10:06.026Z,100369.28
2023-05-09T22:12:32.857Z,100373.09
2023-05-09T22:14:59.474Z,100369.13
2023-05-09T22:17:26.187Z,100373.34
2023-05-09T22:19:52.868Z,100374.03
2023-05-09T22:22:19.670Z,100374.03
2023-05-09T22:24:46.336Z,100373.84
2023-05-09T22:27:13.061Z,100373.53
2023-05-09T22:29:39.724Z,100375.19
2023-05-09T22:32:06.588Z,100364.06
2023-05-09T22:34:33.320Z,100376.00
2023-05-09T22:36:59.968Z,100369.13
2023-05-09T22:39:26.612Z,100374.28
2023-05-09T22:41:53.233Z,100376.06
2023-05-09T22:44:19.811Z,100369.78
2023-05-09T22:46:46.450Z,100371.31
2023-05-09T22:49:13.052Z,100364.16
2023-05-09T22:51:39.715Z,100358.88
2023-05-09T22:54:06.326Z,100370.09
2023-05-09T22:56:32.954Z,100365.47
2023-05-09T22:58:59.549Z,100368.44
2023-05-09T23:01:27.337Z,100364.22
2023-05-09T23:03:54.021Z,100364.69
2023-05-09T23:06:20.613Z,100367.34
2023-05-09T23:08:47.337Z,100364.25
2023-05-09T23:11:14.002Z,100364.06
2023-05-09T23:13:40.599Z,100360.03
2023-05-09T23:16:07.374Z,100364.63
2023-05-09T23:18:34.045Z,100360.75
2023-05-09T23:21:00.731Z,100367.75
2023-05-09T23:23:27.456Z,100363.97
2023-05-09T23:25:54.090Z,100369.72
2023-05-09T23:28:20.698Z,100368.19
2023-05-09T23:30:47.353Z,100369.09
2023-05-09T23:33:13.984Z,100363.59
2023-05-09T23:35:40.578Z,100355.59
2023-05-09T23:38:07.302Z,100353.19
2023-05-09T23:40:33.920Z,100354.22
2023-05-09T23:43:00.556Z,100354.56
2023-05-09T23:45:27.335Z,100354.75
2023-05-09T23:47:54.121Z,100348.56
2023-05-09T23:50:20.820Z,100348.06
2023-05-09T23:52:47.461Z,100343.72
2023-05-09T23:55:14.157Z,100342.88
2023-05-09T23:57:40.934Z,100343.03
